^^
Station Historical Data
Daily Summary for September 17, 2017 Units:  English    Metric   Both
« Previous Day
Next Day »
Daily Weekly Monthly Yearly Custom
  High: Low: Average:
Temperature: 80.7 °F 65.8 °F 70.5 °F
Dew Point: 69.3 °F 64.9 °F 66.7 °F
Humidity: 98% 66% 89%
Wind Speed: 2.0mph 0.0mph 0.3mph
Wind Gust: 9.0mph - -
Wind- - West
Pressure: 30.18 in 30.09 in -
Precipitation: 0.01 in    
Historical Graphs
 
 
Tabular Data for September 17, 2017
Time Temperature Dew Point Pressure Wind Wind Speed Wind Gust Humidity Rainfall Rate (Hourly) Conditions
00:00 67.3 °F 65.8 °F 30.15 in Calm     95% 0.00 in CLR
00:15 67.2 °F 65.7 °F 30.15 in Calm     95% 0.00 in CLR
00:30 66.8 °F 65.3 °F 30.15 in Calm     95% 0.00 in CLR
00:45 66.6 °F 65.1 °F 30.15 in Calm     95% 0.00 in CLR
01:00 66.4 °F 64.9 °F 30.15 in Calm     95% 0.00 in CLR
02:15 66.6 °F 65.7 °F 30.14 in Calm     97% 0.00 in CLR
02:30 66.5 °F 65.3 °F 30.13 in Calm   1.0 mph 96% 0.00 in CLR
02:45 66.2 °F 65.0 °F 30.13 in Calm     96% 0.00 in CLR
03:00 66.2 °F 65.0 °F 30.14 in Calm   1.0 mph 96% 0.00 in CLR
03:15 65.8 °F 64.9 °F 30.13 in Calm     97% 0.00 in CLR
03:30 66.5 °F 65.6 °F 30.13 in Calm     97% 0.00 in CLR
03:45 67.1 °F 66.2 °F 30.13 in Calm     97% 0.00 in CLR
04:00 67.3 °F 66.4 °F 30.14 in Calm     97% 0.00 in CLR
04:15 67.2 °F 66.3 °F 30.13 in Calm     97% 0.00 in CLR
04:30 67.1 °F 66.2 °F 30.14 in Calm     97% 0.00 in CLR
04:45 66.6 °F 65.7 °F 30.14 in Calm   2.0 mph 97% 0.00 in CLR
05:00 66.2 °F 65.3 °F 30.14 in Calm   3.0 mph 97% 0.00 in CLR
05:15 66.2 °F 65.3 °F 30.15 in Calm   1.0 mph 97% 0.00 in CLR
05:30 66.2 °F 65.3 °F 30.15 in Calm   1.0 mph 97% 0.00 in CLR
05:45 66.3 °F 65.4 °F 30.15 in Calm   1.0 mph 97% 0.00 in CLR
06:00 66.2 °F 65.4 °F 30.15 in Calm   1.0 mph 97% 0.00 in CLR
06:15 66.3 °F 65.4 °F 30.16 in Calm     97% 0.00 in CLR
06:30 66.3 °F 65.4 °F 30.16 in Calm   1.0 mph 97% 0.00 in CLR
06:45 66.3 °F 65.4 °F 30.17 in Calm   1.0 mph 97% 0.00 in CLR
07:00 66.4 °F 65.5 °F 30.17 in Calm   2.0 mph 97% 0.00 in CLR
07:15 66.4 °F 65.9 °F 30.17 in Calm   1.0 mph 98% 0.00 in CLR
07:30 66.5 °F 65.9 °F 30.17 in Calm   1.0 mph 98% 0.01 in
07:45 66.5 °F 65.9 °F 30.18 in Calm   1.0 mph 98% 0.00 in
08:00 66.8 °F 66.2 °F 30.18 in Calm     98% 0.00 in
08:15 66.8 °F 66.2 °F 30.18 in Calm   1.0 mph 98% 0.00 in
08:30 67.0 °F 66.4 °F 30.18 in Calm     98% 0.00 in CLR
08:45 67.0 °F 66.4 °F 30.18 in Calm   1.0 mph 98% 0.00 in CLR
09:00 67.2 °F 66.6 °F 30.18 in Calm     98% 0.00 in CLR
09:15 67.5 °F 66.9 °F 30.18 in Calm   1.0 mph 98% 0.00 in CLR
09:30 67.5 °F 66.9 °F 30.18 in Calm   5.0 mph 98% 0.00 in CLR
09:45 67.6 °F 67.0 °F 30.18 in Calm   1.0 mph 98% 0.00 in CLR
10:00 67.7 °F 66.9 °F 30.18 in Calm   2.0 mph 97% 0.00 in CLR
10:15 68.3 °F 67.4 °F 30.17 in Calm   2.0 mph 97% 0.00 in CLR
10:30 68.3 °F 67.4 °F 30.17 in Calm   2.0 mph 97% 0.00 in CLR
10:45 68.8 °F 67.9 °F 30.17 in Calm   2.0 mph 97% 0.00 in CLR
11:00 69.2 °F 67.7 °F 30.17 in Calm   2.0 mph 95% 0.00 in CLR
11:15 70.0 °F 67.9 °F 30.17 in WSW 1.0 mph 2.0 mph 93% 0.00 in OVC
11:30 70.3 °F 67.9 °F 30.16 in Calm   3.0 mph 92% 0.00 in OVC
11:45 71.1 °F 68.0 °F 30.16 in WNW 1.0 mph 2.0 mph 90% 0.00 in OVC
12:00 71.4 °F 67.7 °F 30.17 in WSW 2.0 mph 4.0 mph 88% 0.00 in OVC
12:15 71.9 °F 68.2 °F 30.17 in Calm   3.0 mph 88% 0.00 in BKN
12:30 71.9 °F 67.8 °F 30.17 in Calm   4.0 mph 87% 0.00 in BKN
12:45 72.6 °F 67.8 °F 30.16 in NW 1.0 mph 6.0 mph 85% 0.00 in BKN
13:00 73.2 °F 68.1 °F 30.16 in NW 1.0 mph 7.0 mph 84% 0.00 in BKN
13:15 74.4 °F 68.6 °F 30.16 in North 1.0 mph 4.0 mph 82% 0.00 in BKN
13:30 75.3 °F 68.7 °F 30.15 in Calm   7.0 mph 80% 0.00 in BKN
13:45 76.1 °F 68.7 °F 30.15 in NW 1.0 mph 4.0 mph 78% 0.00 in BKN
14:00 77.5 °F 69.3 °F 30.14 in WSW 1.0 mph 4.0 mph 76% 0.00 in BKN
14:15 76.3 °F 68.6 °F 30.13 in Calm   4.0 mph 77% 0.00 in BKN
14:30 77.0 °F 68.1 °F 30.13 in North 2.0 mph 6.0 mph 74% 0.00 in BKN
14:45 77.3 °F 68.0 °F 30.13 in NW 2.0 mph 6.0 mph 73% 0.00 in BKN
15:00 76.6 °F 68.4 °F 30.13 in NW 1.0 mph 4.0 mph 76% 0.00 in BKN
15:15 78.7 °F 68.9 °F 30.12 in WSW 2.0 mph 3.0 mph 72% 0.00 in SCT
15:30 80.0 °F 69.3 °F 30.12 in South 2.0 mph 9.0 mph 70% 0.00 in SCT
15:45 80.4 °F 69.3 °F 30.11 in Calm   5.0 mph 69% 0.00 in SCT
16:00 80.1 °F 67.7 °F 30.11 in West 2.0 mph 4.0 mph 66% 0.00 in SCT
16:15 79.4 °F 68.3 °F 30.11 in SW 1.0 mph 6.0 mph 69% 0.00 in SCT
16:30 80.7 °F 69.2 °F 30.11 in Calm   6.0 mph 68% 0.00 in SCT
16:45 78.8 °F 69.0 °F 30.11 in Calm   2.0 mph 72% 0.00 in SCT
17:00 79.1 °F 68.1 °F 30.10 in WNW 1.0 mph 4.0 mph 69% 0.00 in SCT
17:15 79.1 °F 68.1 °F 30.10 in SSW 1.0 mph 5.0 mph 69% 0.00 in FEW
17:30 79.4 °F 67.9 °F 30.10 in Calm   3.0 mph 68% 0.00 in FEW
17:45 79.9 °F 67.9 °F 30.10 in Calm   3.0 mph 67% 0.00 in FEW
18:00 79.1 °F 68.1 °F 30.10 in Calm   3.0 mph 69% 0.00 in FEW
18:15 77.8 °F 67.6 °F 30.11 in Calm   2.0 mph 71% 0.00 in FEW
18:30 77.3 °F 67.6 °F 30.10 in Calm   2.0 mph 72% 0.00 in FEW
18:45 75.9 °F 67.4 °F 30.10 in Calm   2.0 mph 75% 0.00 in FEW
19:00 73.7 °F 66.8 °F 30.10 in Calm   1.0 mph 79% 0.00 in FEW
19:15 72.3 °F 66.5 °F 30.09 in Calm   1.0 mph 82% 0.00 in FEW
19:30 71.3 °F 66.5 °F 30.10 in Calm   2.0 mph 85% 0.00 in FEW
20:00 70.2 °F 66.1 °F 30.11 in Calm   1.0 mph 87% 0.00 in FEW
20:15 69.8 °F 66.1 °F 30.12 in Calm   1.0 mph 88% 0.00 in CLR
20:30 69.5 °F 66.4 °F 30.12 in Calm   1.0 mph 90% 0.00 in CLR
20:45 69.0 °F 66.3 °F 30.12 in Calm   1.0 mph 91% 0.00 in CLR
21:00 68.6 °F 65.9 °F 30.13 in Calm   1.0 mph 91% 0.00 in CLR
21:15 68.3 °F 65.9 °F 30.13 in Calm   1.0 mph 92% 0.00 in SCT
21:30 67.8 °F 65.7 °F 30.13 in Calm   2.0 mph 93% 0.00 in SCT
21:45 67.3 °F 65.2 °F 30.14 in Calm   1.0 mph 93% 0.00 in SCT
22:00 67.0 °F 65.3 °F 30.14 in Calm   1.0 mph 94% 0.00 in SCT
22:15 66.8 °F 65.0 °F 30.14 in Calm     94% 0.00 in BKN
22:30 66.6 °F 65.1 °F 30.14 in Calm   1.0 mph 95% 0.00 in BKN
22:45 66.7 °F 65.2 °F 30.14 in Calm   1.0 mph 95% 0.00 in BKN
23:00 67.0 °F 65.5 °F 30.14 in Calm   1.0 mph 95% 0.00 in BKN
23:30 67.3 °F 65.8 °F 30.14 in Calm   1.0 mph 95% 0.00 in -DZ
23:45 67.5 °F 66.0 °F 30.14 in Calm   1.0 mph 95% 0.00 in -DZ
TarryTown NY Weather
Compliments of Weather Underground - 1.5 mb